createdAt,value
2019-04-04T00:03:51.500Z,10.83
2019-04-04T00:08:54.370Z,8.75
2019-04-04T00:13:58.204Z,9.20
2019-04-04T00:19:02.032Z,9.13
2019-04-04T00:24:07.092Z,8.33
2019-04-04T00:29:11.530Z,9.80
2019-04-04T00:34:15.515Z,8.08
2019-04-04T00:39:19.504Z,8.03
2019-04-04T00:44:23.744Z,8.48
2019-04-04T00:49:27.756Z,7.65
2019-04-04T00:54:31.583Z,8.70
2019-04-04T00:59:35.412Z,8.20
2019-04-04T01:04:39.244Z,8.07
2019-04-04T01:09:43.068Z,7.87
2019-04-04T01:14:46.893Z,8.33
2019-04-04T01:19:50.623Z,8.08
2019-04-04T01:24:54.446Z,8.47
2019-04-04T01:29:58.376Z,8.27
2019-04-04T01:35:02.203Z,8.13
2019-04-04T01:40:06.036Z,7.45
2019-04-04T01:45:12.746Z,7.47
2019-04-04T01:50:15.532Z,7.70
2019-04-04T01:55:19.362Z,8.03
2019-04-04T02:00:23.188Z,7.80
2019-04-04T02:05:27.594Z,7.37
2019-04-04T02:10:34.575Z,7.37
2019-04-04T02:15:37.131Z,7.17
2019-04-04T02:20:40.951Z,7.53
2019-04-04T02:25:45.093Z,6.53
2019-04-04T02:30:49.311Z,7.43
2019-04-04T02:35:53.359Z,6.57
2019-04-04T02:40:57.184Z,7.67
2019-04-04T02:46:01.017Z,6.23
2019-04-04T02:51:07.359Z,7.83
2019-04-04T02:56:10.821Z,6.50
2019-04-04T03:01:14.746Z,7.03
2019-04-04T03:06:18.782Z,6.90
2019-04-04T03:11:22.970Z,7.47
2019-04-04T03:16:27.048Z,6.30
2019-04-04T03:21:30.772Z,6.70
2019-04-04T03:26:34.704Z,7.33
2019-04-04T03:31:39.226Z,7.47
2019-04-04T03:36:43.284Z,6.80
2019-04-04T03:41:47.107Z,6.33
2019-04-04T03:46:50.937Z,7.50
2019-04-04T03:51:54.773Z,7.27
2019-04-04T03:56:58.801Z,7.37
2019-04-04T04:02:02.729Z,7.63
2019-04-04T04:07:06.561Z,6.77
2019-04-04T04:12:11.281Z,6.63
2019-04-04T04:17:15.440Z,6.70
2019-04-04T04:22:19.529Z,6.33
2019-04-04T04:27:23.459Z,7.93
2019-04-04T04:32:27.191Z,13.40
2019-04-04T04:37:31.058Z,21.63
2019-04-04T04:42:34.784Z,16.47
2019-04-04T04:47:38.572Z,17.00
2019-04-04T04:52:46.289Z,18.43
2019-04-04T04:57:47.715Z,18.17
2019-04-04T05:02:53.166Z,17.77
2019-04-04T05:07:56.929Z,17.53
2019-04-04T05:13:00.918Z,13.37
2019-04-04T05:18:04.750Z,15.47
2019-04-04T05:23:10.989Z,21.77
2019-04-04T05:28:13.811Z,14.07
2019-04-04T05:33:17.506Z,15.37
2019-04-04T05:38:21.283Z,15.13
2019-04-04T05:43:25.007Z,22.23
2019-04-04T05:48:29.094Z,14.90
2019-04-04T05:53:35.427Z,15.10
2019-04-04T05:58:39.055Z,16.63
2019-04-04T06:03:42.887Z,23.80
2019-04-04T06:08:46.721Z,15.67
2019-04-04T06:13:50.845Z,14.37
2019-04-04T06:18:54.667Z,12.80
2019-04-04T06:23:58.504Z,13.22
2019-04-04T06:29:02.223Z,12.35
2019-04-04T06:34:08.177Z,12.30
2019-04-04T06:39:11.520Z,13.93
2019-04-04T06:44:15.414Z,11.60
2019-04-04T06:49:19.481Z,12.68
2019-04-04T06:54:25.648Z,11.55
2019-04-04T06:59:29.285Z,10.82
2019-04-04T07:04:36.091Z,10.23
2019-04-04T07:09:38.471Z,9.95
2019-04-04T07:14:46.014Z,10.43
2019-04-04T07:19:47.977Z,9.48
2019-04-04T07:24:51.796Z,10.58
2019-04-04T07:29:56.932Z,9.50
2019-04-04T07:35:01.602Z,9.15
2019-04-04T07:40:06.649Z,13.28
2019-04-04T14:30:25.742Z,17.53
2019-04-04T14:35:29.962Z,31.17
2019-04-04T14:40:33.738Z,29.03
2019-04-04T14:45:37.515Z,26.90
2019-04-04T14:50:41.285Z,23.17
2019-04-04T14:55:45.008Z,18.30
2019-04-04T15:00:48.754Z,26.57
2019-04-04T15:05:52.434Z,24.17
2019-04-04T15:10:56.160Z,11.57
2019-04-04T15:16:16.588Z,10.87
2019-04-04T15:21:20.319Z,14.57
2019-04-04T15:26:24.539Z,11.17
2019-04-04T15:31:28.284Z,12.20
2019-04-04T15:36:32.036Z,17.00
2019-04-04T15:41:37.099Z,15.70
2019-04-04T15:46:41.104Z,23.27
2019-04-04T15:51:44.848Z,15.87
2019-04-04T15:56:49.046Z,15.73
2019-04-04T16:01:52.765Z,14.93
2019-04-04T16:06:57.298Z,15.43
2019-04-04T16:12:01.023Z,15.83
2019-04-04T16:17:04.758Z,14.63
2019-04-04T16:22:08.532Z,16.50
2019-04-04T16:27:12.293Z,19.10
2019-04-04T16:32:16.022Z,20.77
2019-04-04T16:37:19.767Z,19.55
2019-04-04T16:42:23.454Z,25.83
2019-04-04T16:47:27.363Z,24.40
2019-04-04T16:52:31.196Z,27.43
2019-04-04T16:57:35.330Z,28.03
2019-04-04T17:02:39.157Z,32.27
2019-04-04T17:07:42.981Z,33.30
2019-04-04T17:12:46.813Z,41.27
2019-04-04T17:17:50.493Z,66.87
2019-04-04T17:22:56.003Z,58.47
2019-04-04T17:27:59.745Z,36.00
2019-04-04T17:33:03.520Z,69.20
2019-04-04T17:38:07.285Z,46.73
2019-04-04T17:43:11.448Z,39.67
2019-04-04T17:48:15.443Z,41.70
2019-04-04T17:53:19.270Z,35.10
2019-04-04T17:58:23.012Z,42.40
2019-04-04T18:03:26.712Z,37.13
2019-04-04T18:08:30.436Z,37.23
2019-04-04T18:13:34.159Z,40.33
2019-04-04T18:18:37.854Z,52.27
2019-04-04T18:23:41.595Z,54.13
2019-04-04T18:28:45.321Z,47.20
2019-04-04T18:33:49.470Z,52.50
2019-04-04T18:38:53.549Z,52.33
2019-04-04T18:43:57.548Z,48.13
2019-04-04T18:49:02.602Z,56.50
2019-04-04T18:54:06.327Z,53.27
2019-04-04T18:59:10.111Z,54.73
2019-04-04T19:04:13.862Z,66.77
2019-04-04T19:09:17.616Z,63.90
2019-04-04T19:14:21.336Z,59.77
2019-04-04T19:19:25.028Z,48.30
2019-04-04T19:24:28.742Z,41.23
2019-04-04T19:29:32.464Z,33.73
2019-04-04T19:34:36.207Z,27.83
2019-04-04T19:39:39.946Z,36.77
2019-04-04T19:44:53.112Z,39.77
2019-04-04T19:49:49.099Z,47.67
2019-04-04T19:54:52.790Z,58.33
2019-04-04T19:59:56.572Z,65.67
2019-04-04T20:05:00.377Z,58.47
2019-04-04T20:10:06.080Z,52.53
2019-04-04T20:15:10.083Z,51.97
2019-04-04T20:20:13.834Z,58.30
2019-04-04T20:25:17.597Z,51.60
2019-04-04T20:30:24.452Z,56.27
2019-04-04T20:35:28.242Z,53.30
2019-04-04T20:40:31.925Z,44.37
2019-04-04T20:45:35.652Z,44.30
2019-04-04T20:50:39.395Z,48.93
2019-04-04T20:55:43.197Z,46.37
2019-04-04T21:00:46.885Z,44.13
2019-04-04T21:05:50.616Z,40.83
2019-04-04T21:10:54.304Z,40.83
2019-04-04T21:15:58.027Z,41.53
2019-04-04T21:21:02.053Z,34.90
2019-04-04T21:26:05.747Z,37.73
2019-04-04T21:31:09.487Z,36.07
2019-04-04T21:36:13.258Z,40.03
2019-04-04T21:41:16.978Z,39.37
2019-04-04T21:46:20.693Z,40.43
2019-04-04T21:51:24.435Z,42.40
2019-04-04T21:56:28.172Z,41.37
2019-04-04T22:01:32.002Z,45.67
2019-04-04T22:06:35.692Z,45.77
2019-04-04T22:11:39.432Z,42.73
2019-04-04T22:16:43.524Z,39.03
2019-04-04T22:21:47.222Z,41.13
2019-04-04T22:26:50.986Z,37.23
2019-04-04T22:31:54.748Z,42.70
2019-04-04T22:36:58.453Z,39.73
2019-04-04T22:42:02.199Z,41.13
2019-04-04T22:47:05.959Z,38.63
2019-04-04T22:52:09.645Z,38.57
2019-04-04T22:57:13.396Z,32.57
2019-04-04T23:02:17.081Z,36.93
2019-04-04T23:07:20.778Z,39.50
2019-04-04T23:12:24.532Z,36.20
2019-04-04T23:17:28.218Z,32.50
2019-04-04T23:22:32.014Z,34.30
2019-04-04T23:27:35.706Z,34.13
2019-04-04T23:32:39.449Z,32.83
2019-04-04T23:37:43.161Z,33.97
2019-04-04T23:42:46.902Z,36.93
2019-04-04T23:47:50.669Z,34.77
2019-04-04T23:52:54.391Z,34.57
2019-04-04T23:57:58.086Z,36.27
